Time;durP1;ratioP1;P1;durP2;ratioP2;P2;SDS_P1;SDS_P2;PMS_P1;PMS_P2;Temp;Humidity;BMP_temperature;BMP_pressure;BME280_temperature;BME280_humidity;BME280_pressure;Samples;Min_cycle;Max_cycle;Signal;HPM_P1;HPM_P2
2023/07/28 00:01:42;;;;;;;23.13;6.00;;;17.90;99.90;;;;;;5035631;28;20052;-71
2023/07/28 00:04:16;;;;;;;22.77;5.82;;;17.90;99.90;;;;;;5053526;28;20045;-72
2023/07/28 00:06:42;;;;;;;20.20;5.57;;;17.90;99.90;;;;;;5036084;28;20491;-72
2023/07/28 00:09:08;;;;;;;21.75;6.35;;;17.90;99.90;;;;;;5052923;28;20044;-71
2023/07/28 00:11:34;;;;;;;20.85;6.47;;;17.90;99.90;;;;;;5053772;28;20036;-71
2023/07/28 00:14:02;;;;;;;19.88;6.05;;;17.90;99.90;;;;;;5036159;28;20053;-71
2023/07/28 00:16:28;;;;;;;21.10;6.65;;;17.90;99.90;;;;;;5053460;28;20045;-71
2023/07/28 00:18:56;;;;;;;22.95;6.65;;;17.90;99.90;;;;;;5035869;28;20067;-71
2023/07/28 00:21:22;;;;;;;24.45;7.22;;;17.90;99.90;;;;;;5036194;28;20501;-71
2023/07/28 00:23:51;;;;;;;18.58;6.47;;;17.90;99.90;;;;;;5052742;28;20464;-71
2023/07/28 00:26:17;;;;;;;30.15;7.10;;;17.90;99.90;;;;;;5035867;28;20139;-71
2023/07/28 00:28:42;;;;;;;23.92;7.07;;;17.90;99.90;;;;;;5035439;28;20544;-72
2023/07/28 00:31:11;;;;;;;22.73;7.05;;;17.90;99.90;;;;;;5035626;28;20066;-72
2023/07/28 00:33:37;;;;;;;26.92;7.20;;;17.90;99.90;;;;;;5053518;28;20461;-72
2023/07/28 00:36:06;;;;;;;20.52;7.07;;;17.90;99.90;;;;;;5036073;28;20504;-71
2023/07/28 00:38:32;;;;;;;29.45;7.10;;;17.90;99.90;;;;;;5052621;28;20040;-72
2023/07/28 00:40:58;;;;;;;29.00;7.20;;;17.80;99.90;;;;;;5053860;28;20037;-72
2023/07/28 00:43:24;;;;;;;26.77;6.78;;;17.90;99.90;;;;;;5053794;28;20488;-71
2023/07/28 00:45:50;;;;;;;22.30;7.20;;;17.90;99.90;;;;;;5052721;28;20056;-72
2023/07/28 00:48:17;;;;;;;20.48;6.78;;;17.90;99.90;;;;;;5035112;28;20037;-72
2023/07/28 00:50:46;;;;;;;24.20;6.75;;;17.90;99.90;;;;;;5034671;28;20405;-72
2023/07/28 00:53:11;;;;;;;23.60;6.65;;;17.90;99.90;;;;;;5035339;28;20049;-71
2023/07/28 00:55:38;;;;;;;16.40;5.57;;;17.90;99.90;;;;;;5035309;28;20041;-72
2023/07/28 00:58:04;;;;;;;25.05;6.65;;;17.90;99.90;;;;;;5052554;28;20381;-72
2023/07/28 01:00:30;;;;;;;18.35;6.07;;;17.90;99.90;;;;;;5035180;28;20037;-72
2023/07/28 01:02:57;;;;;;;26.20;7.45;;;17.90;99.90;;;;;;5052988;28;20053;-72
2023/07/28 01:05:52;;;;;;;31.30;8.15;;;17.90;99.90;;;;;;5052202;28;20059;-72
2023/07/28 01:08:46;;;;;;;32.67;7.38;;;17.90;99.90;;;;;;4997506;28;20044;-72
2023/07/28 01:11:12;;;;;;;18.55;6.63;;;17.80;99.90;;;;;;5035545;28;20057;-72
2023/07/28 01:13:37;;;;;;;27.85;8.02;;;17.80;99.90;;;;;;5034311;28;20056;-72
2023/07/28 01:16:10;;;;;;;25.70;6.82;;;17.80;99.90;;;;;;5052601;28;20053;-72
2023/07/28 01:18:35;;;;;;;21.63;7.50;;;17.80;99.90;;;;;;5059439;28;20051;-71
2023/07/28 01:21:05;;;;;;;20.52;6.70;;;17.80;99.90;;;;;;5037658;28;20424;-73
2023/07/28 01:23:43;;;;;;;21.70;7.00;;;17.80;99.90;;;;;;5053752;28;20044;-72
2023/07/28 01:26:14;;;;;;;24.17;7.05;;;17.80;99.90;;;;;;5034326;28;20504;-72
2023/07/28 01:28:41;;;;;;;20.40;6.38;;;17.80;99.90;;;;;;5052170;28;20045;-72
2023/07/28 01:31:13;;;;;;;22.17;6.40;;;17.80;99.90;;;;;;5034063;28;20511;-71
2023/07/28 01:33:39;;;;;;;24.35;5.93;;;17.80;99.90;;;;;;5051468;28;20512;-72
2023/07/28 01:36:05;;;;;;;20.00;6.20;;;17.70;99.90;;;;;;5035274;28;20045;-72
2023/07/28 01:38:30;;;;;;;22.15;6.18;;;17.80;99.90;;;;;;5034784;28;20084;-71
2023/07/28 01:40:56;;;;;;;17.40;6.15;;;17.70;99.90;;;;;;5033871;28;20048;-72
2023/07/28 01:43:22;;;;;;;18.95;5.97;;;17.70;99.90;;;;;;5034637;28;20145;-71
2023/07/28 01:45:48;;;;;;;19.10;5.30;;;17.70;99.90;;;;;;5052489;28;20385;-71
2023/07/28 01:48:13;;;;;;;16.15;5.63;;;17.70;99.90;;;;;;5033419;28;20503;-71
2023/07/28 01:50:39;;;;;;;22.33;5.55;;;17.70;99.90;;;;;;5034592;28;20051;-71
2023/07/28 01:53:06;;;;;;;16.75;5.07;;;17.70;99.90;;;;;;5052349;28;20037;-71
2023/07/28 01:55:31;;;;;;;18.75;5.70;;;17.70;99.90;;;;;;5033401;28;20045;-70
2023/07/28 01:57:59;;;;;;;17.05;5.07;;;17.70;99.90;;;;;;5034251;28;20048;-71
2023/07/28 02:00:26;;;;;;;15.50;5.53;;;17.70;99.90;;;;;;5032438;28;20120;-72
2023/07/28 02:02:52;;;;;;;18.75;5.63;;;17.70;99.90;;;;;;5030828;28;20064;-72
2023/07/28 02:05:19;;;;;;;19.35;5.50;;;17.70;99.90;;;;;;5032471;28;20042;-71
2023/07/28 02:07:45;;;;;;;14.80;5.57;;;17.60;99.90;;;;;;5037555;28;20048;-71
2023/07/28 02:10:11;;;;;;;14.05;4.85;;;17.60;99.90;;;;;;5033737;28;20041;-72
2023/07/28 02:12:38;;;;;;;17.75;5.20;;;17.60;99.90;;;;;;5051693;28;20063;-72
2023/07/28 02:15:05;;;;;;;13.35;5.00;;;17.70;99.90;;;;;;5051123;28;20053;-71
2023/07/28 02:17:31;;;;;;;15.43;5.00;;;17.60;99.90;;;;;;5052435;28;20119;-71
2023/07/28 02:20:01;;;;;;;14.90;4.53;;;17.60;99.90;;;;;;5052326;28;20048;-71
2023/07/28 02:22:26;;;;;;;19.17;4.72;;;17.60;99.90;;;;;;5051115;28;20049;-71
2023/07/28 02:24:52;;;;;;;12.48;4.47;;;17.60;99.90;;;;;;5051518;28;20057;-71
2023/07/28 02:27:18;;;;;;;14.65;4.88;;;17.60;99.90;;;;;;5037196;28;20099;-71
2023/07/28 02:29:44;;;;;;;14.32;4.68;;;17.60;99.90;;;;;;5037217;28;20044;-71
2023/07/28 02:32:09;;;;;;;15.30;4.43;;;17.60;99.90;;;;;;5056054;28;20053;-70
2023/07/28 02:34:35;;;;;;;14.07;4.38;;;17.60;99.90;;;;;;5036942;28;20045;-71
2023/07/28 02:37:01;;;;;;;13.75;4.72;;;17.60;99.90;;;;;;5037331;28;20053;-71
2023/07/28 02:39:26;;;;;;;17.55;4.70;;;17.60;99.90;;;;;;5056300;28;20056;-71
2023/07/28 02:41:55;;;;;;;20.17;4.72;;;17.60;99.90;;;;;;5055869;28;20136;-71
2023/07/28 02:44:20;;;;;;;15.25;4.90;;;17.50;99.90;;;;;;5037067;28;20075;-71
2023/07/28 02:46:49;;;;;;;19.65;5.35;;;17.60;99.90;;;;;;5037796;28;20048;-70
2023/07/28 02:49:15;;;;;;;19.77;4.93;;;17.60;99.90;;;;;;5037786;28;20127;-71
2023/07/28 02:51:41;;;;;;;18.77;4.53;;;17.60;99.90;;;;;;5054596;28;20544;-70
2023/07/28 02:54:07;;;;;;;18.77;5.60;;;17.60;99.90;;;;;;5037660;28;20378;-70
2023/07/28 02:56:37;;;;;;;20.50;4.25;;;17.50;99.90;;;;;;5055535;28;20496;-70
2023/07/28 02:59:06;;;;;;;17.85;4.85;;;17.60;99.90;;;;;;5037067;28;20055;-70
2023/07/28 03:01:35;;;;;;;12.23;4.55;;;17.60;99.90;;;;;;5037618;28;20515;-71
2023/07/28 03:04:03;;;;;;;14.10;4.72;;;17.60;99.90;;;;;;5037209;28;20051;-70
2023/07/28 03:06:29;;;;;;;17.63;4.50;;;17.60;99.90;;;;;;5054361;28;20044;-70
2023/07/28 03:08:55;;;;;;;13.20;4.93;;;17.60;99.90;;;;;;5055241;28;20087;-71
2023/07/28 03:11:21;;;;;;;13.55;4.78;;;17.70;99.90;;;;;;5037038;28;20075;-71
2023/07/28 03:13:46;;;;;;;17.35;4.70;;;17.60;99.90;;;;;;5036894;28;20480;-71
2023/07/28 03:16:12;;;;;;;12.05;4.18;;;17.60;99.90;;;;;;5034441;28;20061;-71
2023/07/28 03:18:38;;;;;;;9.32;4.32;;;17.60;99.90;;;;;;5054358;28;20040;-71
2023/07/28 03:21:09;;;;;;;11.57;4.55;;;17.60;99.90;;;;;;5054473;28;20037;-72
2023/07/28 03:23:35;;;;;;;11.02;4.28;;;17.60;99.90;;;;;;5053489;28;20044;-71
2023/07/28 03:26:00;;;;;;;11.48;4.10;;;17.60;99.90;;;;;;5035201;28;20047;-71
2023/07/28 03:28:26;;;;;;;13.95;4.25;;;17.60;99.90;;;;;;5055332;28;20069;-71
2023/07/28 03:30:52;;;;;;;10.85;3.50;;;17.60;99.90;;;;;;5037145;28;20497;-71
2023/07/28 03:33:18;;;;;;;12.50;3.60;;;17.60;99.90;;;;;;5053570;28;20095;-71
2023/07/28 03:35:44;;;;;;;8.23;3.65;;;17.60;99.90;;;;;;5035803;28;20080;-71
2023/07/28 03:38:09;;;;;;;9.02;3.17;;;17.60;99.90;;;;;;5036406;28;20436;-71
2023/07/28 03:40:35;;;;;;;7.82;3.65;;;17.70;99.90;;;;;;5053757;28;20398;-72
2023/07/28 03:43:02;;;;;;;10.07;4.07;;;17.60;99.90;;;;;;5054679;28;20037;-71
2023/07/28 03:45:27;;;;;;;12.25;4.07;;;17.60;99.90;;;;;;5036758;28;20124;-71
2023/07/28 03:47:53;;;;;;;10.50;3.50;;;17.60;99.90;;;;;;5035526;28;20584;-71
2023/07/28 03:50:19;;;;;;;11.98;3.63;;;17.70;99.90;;;;;;5053573;28;20052;-71
2023/07/28 03:52:45;;;;;;;11.30;3.60;;;17.70;99.90;;;;;;5036872;28;20451;-71
2023/07/28 03:55:10;;;;;;;15.15;3.78;;;17.60;99.90;;;;;;5035706;28;20444;-71
2023/07/28 03:57:36;;;;;;;12.20;3.40;;;17.70;99.90;;;;;;5036222;28;20132;-72
2023/07/28 04:00:02;;;;;;;11.48;3.47;;;17.70;99.90;;;;;;5036315;28;20041;-71
2023/07/28 04:02:28;;;;;;;9.93;3.83;;;17.70;99.90;;;;;;5035203;28;20049;-71
2023/07/28 04:04:55;;;;;;;10.50;3.50;;;17.70;99.90;;;;;;5053889;28;20378;-71
2023/07/28 04:07:21;;;;;;;13.40;4.40;;;17.70;99.90;;;;;;5054030;28;20049;-71
2023/07/28 04:09:46;;;;;;;9.15;4.45;;;17.70;99.90;;;;;;5035379;28;20139;-71
2023/07/28 04:12:12;;;;;;;13.23;5.57;;;17.70;99.90;;;;;;5053418;28;20053;-72
2023/07/28 04:14:47;;;;;;;11.32;5.20;;;17.70;99.90;;;;;;5035159;28;20053;-71
2023/07/28 04:17:15;;;;;;;11.93;5.47;;;17.70;99.90;;;;;;5035790;28;20057;-71
2023/07/28 04:19:41;;;;;;;9.10;5.60;;;17.70;99.90;;;;;;5054035;28;20041;-72
2023/07/28 04:22:07;;;;;;;11.18;6.05;;;17.70;99.90;;;;;;5053454;28;20052;-71
2023/07/28 04:24:33;;;;;;;13.95;7.05;;;17.70;99.90;;;;;;5053894;28;20053;-71
2023/07/28 04:27:01;;;;;;;13.70;7.22;;;17.60;99.90;;;;;;5053653;28;20041;-72
2023/07/28 04:29:27;;;;;;;14.98;7.25;;;17.60;99.90;;;;;;5053444;28;20048;-71
2023/07/28 04:31:53;;;;;;;11.93;7.43;;;17.60;99.90;;;;;;5053418;28;20045;-71
2023/07/28 04:34:18;;;;;;;9.80;7.57;;;17.60;99.90;;;;;;5036230;28;20060;-72
2023/07/28 04:36:44;;;;;;;12.52;7.88;;;17.60;99.90;;;;;;5052414;28;20041;-71
2023/07/28 04:39:10;;;;;;;13.65;8.00;;;17.60;99.90;;;;;;5036094;28;20045;-72
2023/07/28 04:41:36;;;;;;;12.10;7.40;;;17.60;99.90;;;;;;5035744;28;20045;-72
2023/07/28 04:44:04;;;;;;;10.73;7.78;;;17.60;99.90;;;;;;5035540;28;20056;-72
2023/07/28 04:46:30;;;;;;;12.18;7.90;;;17.60;99.90;;;;;;5053116;28;21541;-72
2023/07/28 04:48:56;;;;;;;11.95;8.35;;;17.70;99.90;;;;;;5053622;28;20056;-72
2023/07/28 04:51:34;;;;;;;13.38;7.95;;;17.70;99.90;;;;;;5034444;28;20049;-71
2023/07/28 04:54:00;;;;;;;13.95;8.30;;;17.70;99.90;;;;;;5053992;28;20033;-72
2023/07/28 04:56:26;;;;;;;15.07;9.07;;;17.70;99.90;;;;;;5035841;28;20405;-71
2023/07/28 04:58:58;;;;;;;12.77;9.13;;;17.70;99.90;;;;;;5017402;28;20413;-72
2023/07/28 05:01:27;;;;;;;13.35;9.20;;;17.80;99.90;;;;;;5049936;28;20041;-71
2023/07/28 05:03:53;;;;;;;13.20;9.15;;;17.80;99.90;;;;;;5034555;28;20041;-72
2023/07/28 05:06:21;;;;;;;13.05;9.35;;;17.70;99.90;;;;;;5053213;28;20048;-71
2023/07/28 05:08:47;;;;;;;13.40;9.95;;;17.80;99.90;;;;;;5034733;28;20033;-71
2023/07/28 05:11:13;;;;;;;14.95;9.77;;;17.80;99.90;;;;;;5034171;28;20053;-72
2023/07/28 05:13:41;;;;;;;14.77;9.40;;;17.80;99.90;;;;;;5034952;28;20052;-72
2023/07/28 05:16:07;;;;;;;15.23;10.73;;;17.90;99.90;;;;;;5052926;28;20045;-71
2023/07/28 05:18:36;;;;;;;12.20;9.32;;;17.90;99.90;;;;;;5033161;28;20043;-71
2023/07/28 05:21:05;;;;;;;14.30;9.88;;;17.90;99.90;;;;;;5052944;28;20080;-71
2023/07/28 05:23:30;;;;;;;13.13;9.70;;;17.90;99.90;;;;;;5035010;28;20048;-70
2023/07/28 05:25:56;;;;;;;14.45;9.88;;;17.90;99.90;;;;;;5051987;28;20052;-71
2023/07/28 05:28:22;;;;;;;13.57;9.40;;;17.90;99.90;;;;;;5034697;28;20187;-70
2023/07/28 05:30:48;;;;;;;16.13;10.60;;;17.90;99.90;;;;;;5052747;28;20060;-71
2023/07/28 05:33:13;;;;;;;14.20;10.50;;;18.00;99.90;;;;;;5052251;28;20068;-71
2023/07/28 05:35:42;;;;;;;13.82;10.38;;;18.00;99.90;;;;;;5034537;28;20052;-71
2023/07/28 05:38:07;;;;;;;14.65;10.65;;;18.00;99.90;;;;;;5052460;28;20067;-71
2023/07/28 05:40:33;;;;;;;14.23;9.82;;;18.00;99.90;;;;;;5050652;28;20053;-71
2023/07/28 05:42:59;;;;;;;14.43;10.93;;;17.90;99.90;;;;;;5052851;28;20041;-71
2023/07/28 05:45:27;;;;;;;15.35;11.30;;;18.00;99.90;;;;;;5030989;28;20049;-71
2023/07/28 05:47:53;;;;;;;15.10;10.73;;;18.00;99.90;;;;;;5045054;28;20086;-72
2023/07/28 05:50:18;;;;;;;14.40;10.88;;;18.00;99.90;;;;;;5012833;28;20050;-71
2023/07/28 05:52:44;;;;;;;15.13;11.10;;;18.00;99.90;;;;;;5016379;28;20124;-72
2023/07/28 05:55:10;;;;;;;18.20;12.85;;;18.00;99.90;;;;;;5011755;28;20401;-72
2023/07/28 05:57:36;;;;;;;16.45;12.13;;;18.00;99.90;;;;;;5012573;28;20466;-71
2023/07/28 06:00:02;;;;;;;14.35;10.85;;;18.10;99.90;;;;;;5012839;28;20041;-71
2023/07/28 06:02:28;;;;;;;14.13;10.70;;;17.90;99.90;;;;;;5022711;28;20330;-71
2023/07/28 06:04:54;;;;;;;15.20;10.73;;;18.10;99.90;;;;;;5029182;28;20067;-71
2023/07/28 06:07:20;;;;;;;14.23;10.93;;;18.10;99.90;;;;;;5037406;28;20080;-71
2023/07/28 06:09:46;;;;;;;13.40;10.32;;;18.10;99.90;;;;;;5014569;28;20069;-71
2023/07/28 06:12:16;;;;;;;14.75;10.02;;;18.10;99.90;;;;;;5013682;28;20049;-71
2023/07/28 06:14:42;;;;;;;14.30;9.57;;;18.10;99.90;;;;;;5012212;28;20053;-71
2023/07/28 06:17:09;;;;;;;14.38;10.32;;;18.10;99.90;;;;;;5012960;28;20053;-70
2023/07/28 06:19:35;;;;;;;15.05;10.23;;;18.10;99.90;;;;;;5018363;28;20450;-71
2023/07/28 06:22:01;;;;;;;14.73;10.88;;;18.10;99.90;;;;;;5016505;28;20132;-71
2023/07/28 06:24:30;;;;;;;15.90;10.25;;;18.20;99.90;;;;;;5014756;28;20132;-71
2023/07/28 06:26:55;;;;;;;11.35;9.57;;;18.20;99.90;;;;;;5031973;28;20404;-71
2023/07/28 06:29:21;;;;;;;11.88;8.95;;;18.30;99.90;;;;;;5031546;28;20037;-71
2023/07/28 06:31:47;;;;;;;13.52;9.93;;;18.20;99.90;;;;;;5014551;28;20045;-71
2023/07/28 06:34:12;;;;;;;14.18;10.18;;;18.20;99.90;;;;;;5032574;28;20041;-71
2023/07/28 06:36:39;;;;;;;12.68;9.55;;;18.20;99.90;;;;;;5013795;28;20049;-71
2023/07/28 06:39:05;;;;;;;13.48;8.82;;;18.20;99.90;;;;;;5032188;28;20103;-71
2023/07/28 06:41:34;;;;;;;11.95;9.13;;;18.20;99.90;;;;;;5013726;28;20532;-70
2023/07/28 06:44:00;;;;;;;11.60;8.27;;;18.20;99.90;;;;;;5031518;28;20041;-71
2023/07/28 06:46:25;;;;;;;11.65;8.52;;;18.20;99.90;;;;;;5014388;28;20041;-70
2023/07/28 06:48:52;;;;;;;10.20;7.78;;;18.20;99.90;;;;;;5031992;28;20338;-71
2023/07/28 06:51:17;;;;;;;11.25;8.40;;;18.30;99.90;;;;;;5013423;28;20045;-71
2023/07/28 06:53:43;;;;;;;12.05;8.68;;;18.20;99.90;;;;;;5014189;28;20099;-71
2023/07/28 06:56:12;;;;;;;11.35;8.40;;;18.20;99.90;;;;;;5014248;28;20048;-72
2023/07/28 06:58:37;;;;;;;11.23;8.20;;;18.30;99.90;;;;;;5031066;28;20033;-71
2023/07/28 07:01:03;;;;;;;12.02;8.80;;;18.30;99.90;;;;;;5014549;28;20549;-72
2023/07/28 07:03:28;;;;;;;12.13;9.32;;;18.30;99.90;;;;;;5013597;28;20033;-72
2023/07/28 07:05:54;;;;;;;11.45;8.95;;;18.40;99.90;;;;;;5013976;28;20045;-72
2023/07/28 07:08:23;;;;;;;12.20;9.15;;;18.40;99.90;;;;;;5017533;28;20481;-72
2023/07/28 07:10:52;;;;;;;11.40;9.02;;;18.50;99.90;;;;;;5050854;28;20064;-73
2023/07/28 07:13:19;;;;;;;13.07;8.95;;;18.40;99.90;;;;;;5030727;28;20075;-74
2023/07/28 07:15:45;;;;;;;14.52;10.55;;;18.40;99.90;;;;;;5046507;28;20120;-73
2023/07/28 07:18:11;;;;;;;13.85;10.10;;;18.40;99.90;;;;;;5022485;28;20129;-73
2023/07/28 07:20:41;;;;;;;13.43;10.20;;;18.50;99.90;;;;;;5049686;28;20599;-73
2023/07/28 07:23:07;;;;;;;14.82;10.25;;;18.50;99.90;;;;;;5021002;28;20041;-73
2023/07/28 07:25:33;;;;;;;13.20;9.15;;;18.70;99.90;;;;;;5026840;28;20195;-73
2023/07/28 07:27:59;;;;;;;11.45;8.80;;;18.80;99.90;;;;;;5046073;28;20116;-73
2023/07/28 07:30:46;;;;;;;12.70;9.60;;;18.80;99.90;;;;;;5047980;28;20469;-73
2023/07/28 07:33:10;;;;;;;15.60;10.18;;;18.90;99.90;;;;;;5037277;28;20041;-74
2023/07/28 07:35:37;;;;;;;12.30;9.05;;;18.80;99.90;;;;;;5021787;28;20045;-72
2023/07/28 07:38:08;;;;;;;12.52;8.63;;;18.90;99.90;;;;;;5033775;28;20566;-72
2023/07/28 07:40:35;;;;;;;12.90;9.90;;;19.00;99.90;;;;;;5035042;28;20416;-73
2023/07/28 07:43:03;;;;;;;10.48;7.85;;;19.00;99.90;;;;;;5036714;28;20053;-73
2023/07/28 07:45:31;;;;;;;10.45;8.30;;;19.10;99.90;;;;;;5053784;28;20037;-73
2023/07/28 07:47:58;;;;;;;11.55;8.27;;;19.10;99.90;;;;;;5054228;28;20396;-71
2023/07/28 07:50:25;;;;;;;9.45;7.45;;;19.20;99.90;;;;;;5054469;28;20474;-72
2023/07/28 07:52:50;;;;;;;10.82;7.63;;;19.20;99.90;;;;;;5035546;28;20398;-72
2023/07/28 07:55:16;;;;;;;12.38;8.80;;;19.20;99.90;;;;;;5036675;28;20534;-72
2023/07/28 07:57:42;;;;;;;11.77;8.50;;;19.20;99.90;;;;;;5035858;28;20393;-72
2023/07/28 08:00:10;;;;;;;9.82;7.97;;;19.30;99.90;;;;;;5035141;28;20049;-71
2023/07/28 08:02:36;;;;;;;10.27;8.55;;;19.20;99.90;;;;;;5036238;28;20400;-72
2023/07/28 08:05:23;;;;;;;10.40;8.40;;;19.20;99.90;;;;;;5054610;28;20041;-72
2023/07/28 08:07:48;;;;;;;11.63;9.23;;;19.30;99.90;;;;;;5034384;28;20127;-73
2023/07/28 08:10:14;;;;;;;11.60;8.90;;;19.20;99.90;;;;;;5054249;28;20460;-79
2023/07/28 08:12:41;;;;;;;13.40;8.85;;;19.20;99.90;;;;;;5050778;28;20051;-72
2023/07/28 08:15:07;;;;;;;11.50;8.88;;;19.30;99.90;;;;;;5031464;28;20088;-72
2023/07/28 08:17:35;;;;;;;11.40;7.80;;;19.30;99.90;;;;;;5015796;28;20053;-73
2023/07/28 08:20:01;;;;;;;10.07;8.48;;;19.40;99.90;;;;;;5005313;28;20129;-74
2023/07/28 08:22:27;;;;;;;10.07;8.10;;;19.30;99.90;;;;;;5005838;28;20132;-74
2023/07/28 08:24:58;;;;;;;12.90;9.15;;;19.20;99.90;;;;;;5033599;28;20034;-74
2023/07/28 08:27:24;;;;;;;12.00;9.35;;;19.20;99.90;;;;;;5016315;28;20052;-74
2023/07/28 08:29:52;;;;;;;14.27;9.55;;;19.30;99.90;;;;;;5015123;28;20037;-73
2023/07/28 08:32:18;;;;;;;12.43;8.98;;;19.50;99.90;;;;;;5016257;28;20049;-74
2023/07/28 08:34:47;;;;;;;13.13;9.05;;;19.60;99.90;;;;;;5033316;28;20038;-74
2023/07/28 08:37:13;;;;;;;11.88;9.00;;;20.50;99.90;;;;;;5033802;28;20080;-74
2023/07/28 08:39:39;;;;;;;11.20;8.00;;;21.60;99.90;;;;;;5014892;28;20098;-73
2023/07/28 08:42:05;;;;;;;8.93;7.60;;;22.50;99.90;;;;;;5015615;28;20159;-73
2023/07/28 08:44:32;;;;;;;7.88;6.65;;;22.70;99.90;;;;;;5015954;28;20053;-72
2023/07/28 08:47:04;;;;;;;7.80;6.50;;;22.40;99.90;;;;;;5015851;28;20482;-72
2023/07/28 08:49:35;;;;;;;6.55;5.40;;;22.20;99.90;;;;;;5015585;28;20057;-73
2023/07/28 08:52:02;;;;;;;6.22;4.85;;;21.80;99.90;;;;;;5033538;28;20045;-73
2023/07/28 08:54:31;;;;;;;7.65;6.10;;;21.70;99.90;;;;;;5015713;28;20053;-74
2023/07/28 08:56:59;;;;;;;6.85;5.03;;;22.00;99.90;;;;;;5014976;28;20513;-73
2023/07/28 08:59:36;;;;;;;6.38;4.70;;;22.40;99.90;;;;;;5033400;28;20037;-71
2023/07/28 09:02:04;;;;;;;7.40;5.05;;;22.70;99.90;;;;;;5033335;28;20041;-72
2023/07/28 09:04:30;;;;;;;6.22;3.85;;;22.90;99.90;;;;;;5032375;28;20120;-72
2023/07/28 09:06:56;;;;;;;4.68;4.00;;;22.70;99.90;;;;;;5032547;28;20159;-71
2023/07/28 09:09:22;;;;;;;7.18;5.03;;;22.80;99.90;;;;;;5014961;28;20060;-71
2023/07/28 09:11:51;;;;;;;6.65;4.82;;;22.70;99.90;;;;;;5031450;28;20038;-70
2023/07/28 09:14:23;;;;;;;7.15;4.43;;;22.70;99.90;;;;;;5033079;28;20053;-71
2023/07/28 09:16:49;;;;;;;5.15;4.60;;;22.70;99.90;;;;;;5014964;28;20068;-70
2023/07/28 09:19:15;;;;;;;6.78;4.20;;;22.60;99.90;;;;;;5020791;28;20488;-71
2023/07/28 09:21:47;;;;;;;4.60;3.60;;;22.70;99.90;;;;;;5032857;28;20071;-71
2023/07/28 09:24:14;;;;;;;7.20;4.20;;;23.10;99.90;;;;;;5017412;28;20049;-71
2023/07/28 09:26:44;;;;;;;5.40;4.32;;;23.10;99.90;;;;;;5032825;28;20110;-70
2023/07/28 09:29:23;;;;;;;5.05;3.72;;;23.40;99.90;;;;;;5025345;28;20046;-71
2023/07/28 09:31:52;;;;;;;6.25;4.28;;;23.80;99.90;;;;;;5028856;28;20437;-71
2023/07/28 09:34:28;;;;;;;6.55;4.45;;;23.80;99.90;;;;;;5029716;28;20048;-71
2023/07/28 09:36:55;;;;;;;6.93;4.13;;;23.40;99.90;;;;;;5010244;28;20102;-71
2023/07/28 09:39:21;;;;;;;7.68;5.00;;;22.90;99.90;;;;;;5016468;28;20059;-70
2023/07/28 09:41:49;;;;;;;5.65;4.55;;;22.40;99.90;;;;;;5032133;28;20128;-70
2023/07/28 09:44:15;;;;;;;5.72;4.40;;;22.50;99.90;;;;;;5034441;28;20125;-71
2023/07/28 09:46:59;;;;;;;5.03;4.05;;;22.70;99.90;;;;;;5032946;28;20087;-71
2023/07/28 09:49:31;;;;;;;5.70;4.53;;;23.30;99.90;;;;;;5052056;28;20114;-71
2023/07/28 09:52:03;;;;;;;7.47;5.13;;;23.80;99.90;;;;;;5034282;28;20099;-71
2023/07/28 09:54:33;;;;;;;4.80;3.35;;;24.90;99.90;;;;;;5052253;28;20044;-71
2023/07/28 09:57:00;;;;;;;4.35;3.30;;;25.30;99.90;;;;;;5052358;28;20045;-71
2023/07/28 09:59:32;;;;;;;4.88;3.13;;;25.30;99.90;;;;;;5044991;28;20371;-71
2023/07/28 10:01:58;;;;;;;5.03;2.88;;;25.30;99.90;;;;;;5032676;28;20046;-71
2023/07/28 10:04:24;;;;;;;4.35;2.90;;;25.90;99.90;;;;;;5032385;28;20099;-71
2023/07/28 10:06:56;;;;;;;5.03;2.92;;;26.40;99.90;;;;;;5031349;28;20037;-71
2023/07/28 10:09:38;;;;;;;4.10;2.88;;;26.60;99.90;;;;;;5020543;28;20049;-71
2023/07/28 10:12:05;;;;;;;3.95;3.03;;;27.10;99.90;;;;;;5052630;28;20053;-71
2023/07/28 10:14:37;;;;;;;3.78;2.50;;;27.40;99.90;;;;;;5050587;28;20083;-71
2023/07/28 10:17:06;;;;;;;3.60;2.80;;;27.20;99.90;;;;;;5050789;28;20120;-71
2023/07/28 10:19:39;;;;;;;4.75;3.05;;;26.90;99.90;;;;;;5038254;28;20041;-71
2023/07/28 10:22:10;;;;;;;6.13;3.10;;;26.80;99.90;;;;;;5030564;28;20096;-72
2023/07/28 10:25:00;;;;;;;5.18;3.20;;;26.40;99.90;;;;;;5032032;28;20034;-72
2023/07/28 10:27:29;;;;;;;3.88;3.20;;;25.90;99.90;;;;;;5049914;28;20072;-72
2023/07/28 10:29:59;;;;;;;5.35;3.33;;;25.90;99.90;;;;;;5051864;28;20052;-72
2023/07/28 10:32:29;;;;;;;4.13;2.80;;;25.70;99.90;;;;;;5052223;28;20128;-72
2023/07/28 10:35:02;;;;;;;4.15;2.88;;;25.60;99.90;;;;;;5051086;28;20056;-72
2023/07/28 10:37:28;;;;;;;3.80;2.83;;;25.50;99.90;;;;;;5051770;28;20052;-72
2023/07/28 10:40:32;;;;;;;4.00;3.00;;;25.70;99.90;;;;;;5051722;28;20045;-71
2023/07/28 10:42:58;;;;;;;3.10;2.30;;;25.90;99.90;;;;;;5050958;28;20377;-72
2023/07/28 10:45:27;;;;;;;7.47;2.72;;;26.60;99.90;;;;;;5050171;28;20041;-72
2023/07/28 10:47:56;;;;;;;4.07;3.38;;;27.00;99.90;;;;;;4996906;28;20045;-73
2023/07/28 10:50:23;;;;;;;5.15;3.15;;;26.90;99.90;;;;;;5017383;28;20045;-72
2023/07/28 10:52:52;;;;;;;3.47;2.70;;;26.80;99.90;;;;;;5054865;28;20077;-72
2023/07/28 10:55:23;;;;;;;3.42;2.22;;;26.80;99.90;;;;;;5054511;28;20071;-73
2023/07/28 10:57:50;;;;;;;4.82;3.30;;;26.90;99.90;;;;;;5019369;28;20044;-72
2023/07/28 11:00:21;;;;;;;4.13;3.10;;;27.10;99.90;;;;;;5017721;28;20472;-72
2023/07/28 11:02:52;;;;;;;4.75;2.70;;;27.00;99.90;;;;;;5034586;28;20413;-72
2023/07/28 11:05:26;;;;;;;4.75;3.17;;;27.00;99.90;;;;;;5035173;28;20481;-73
2023/07/28 11:07:55;;;;;;;4.68;2.50;;;27.10;99.90;;;;;;5017781;28;20061;-73
2023/07/28 11:10:21;;;;;;;4.00;2.80;;;27.20;99.90;;;;;;5034639;28;20079;-72
2023/07/28 11:12:50;;;;;;;4.43;3.03;;;27.20;99.90;;;;;;5018783;28;20045;-72
2023/07/28 11:15:17;;;;;;;5.85;2.92;;;27.20;99.90;;;;;;5055565;28;20071;-72
2023/07/28 11:17:49;;;;;;;3.92;2.20;;;27.20;99.90;;;;;;5054138;28;20357;-72
2023/07/28 11:20:20;;;;;;;3.25;1.90;;;27.40;99.90;;;;;;5037292;28;20053;-73
2023/07/28 11:22:52;;;;;;;4.25;2.10;;;27.70;99.90;;;;;;5054643;28;20508;-72
2023/07/28 11:25:25;;;;;;;3.33;2.00;;;27.80;99.90;;;;;;5036438;28;20084;-72
2023/07/28 11:27:55;;;;;;;3.28;1.85;;;27.90;99.90;;;;;;5054593;28;20080;-73
2023/07/28 11:30:22;;;;;;;3.63;2.53;;;28.00;99.90;;;;;;5036993;28;20455;-73
2023/07/28 11:32:49;;;;;;;4.95;2.58;;;27.70;99.90;;;;;;5053534;28;20132;-72
2023/07/28 11:35:17;;;;;;;5.07;2.13;;;27.50;99.50;;;;;;5054364;28;20045;-73
2023/07/28 11:37:45;;;;;;;3.45;1.85;;;27.40;99.90;;;;;;5036431;28;20175;-73
2023/07/28 11:40:12;;;;;;;5.85;2.50;;;27.60;99.90;;;;;;5055041;28;20467;-72
2023/07/28 11:42:40;;;;;;;4.70;2.67;;;27.30;99.90;;;;;;5036349;28;20045;-72
2023/07/28 11:45:11;;;;;;;3.90;2.38;;;26.90;99.90;;;;;;5054161;28;20094;-72
2023/07/28 11:47:37;;;;;;;4.65;2.67;;;26.90;99.90;;;;;;5036265;28;20404;-73
2023/07/28 11:50:07;;;;;;;4.43;2.33;;;26.80;99.90;;;;;;5054840;28;20128;-72
2023/07/28 11:52:34;;;;;;;4.68;2.80;;;26.80;99.90;;;;;;5053490;28;20041;-72
2023/07/28 11:55:02;;;;;;;5.40;2.70;;;26.80;99.90;;;;;;5054750;28;20132;-73
2023/07/28 11:57:32;;;;;;;3.70;2.50;;;27.10;99.90;;;;;;5054564;28;20412;-73
2023/07/28 12:00:03;;;;;;;4.32;2.55;;;27.20;99.90;;;;;;5035045;28;20077;-73
2023/07/28 12:02:31;;;;;;;4.82;3.30;;;27.60;99.90;;;;;;5036240;28;20113;-74
2023/07/28 12:05:00;;;;;;;3.38;2.08;;;27.30;99.40;;;;;;5035962;28;20127;-71
2023/07/28 12:07:30;;;;;;;4.70;2.30;;;27.10;99.90;;;;;;5053473;28;20138;-71
2023/07/28 12:10:00;;;;;;;4.45;2.10;;;27.20;99.90;;;;;;5053864;28;20045;-71
2023/07/28 12:12:31;;;;;;;3.35;2.30;;;26.80;99.40;;;;;;5036348;28;20045;-71
2023/07/28 12:15:04;;;;;;;3.53;2.03;;;27.00;99.90;;;;;;5035283;28;20049;-71
2023/07/28 12:17:30;;;;;;;4.15;2.40;;;26.90;99.40;;;;;;5036179;28;20142;-71
2023/07/28 12:20:10;;;;;;;3.38;2.03;;;27.00;99.90;;;;;;5053227;28;20428;-74
2023/07/28 12:22:41;;;;;;;4.88;2.20;;;27.00;99.80;;;;;;5053591;28;20055;-73
2023/07/28 12:25:11;;;;;;;2.95;1.90;;;27.10;99.90;;;;;;5036322;28;20064;-73
2023/07/28 12:27:40;;;;;;;3.83;2.22;;;27.10;99.80;;;;;;5052981;28;20041;-73
2023/07/28 12:30:09;;;;;;;3.17;1.80;;;27.30;99.90;;;;;;5054093;28;20118;-73
2023/07/28 12:32:35;;;;;;;4.40;2.25;;;27.30;99.10;;;;;;5053312;28;20132;-74
2023/07/28 12:35:00;;;;;;;4.03;2.05;;;27.30;99.10;;;;;;5053140;28;20119;-73
2023/07/28 12:37:26;;;;;;;3.63;2.10;;;27.50;99.00;;;;;;5053514;28;20473;-73
2023/07/28 12:39:52;;;;;;;4.78;1.90;;;27.60;99.20;;;;;;5052814;28;20132;-73
2023/07/28 12:42:18;;;;;;;2.95;1.52;;;27.70;99.30;;;;;;5034538;28;20077;-73
2023/07/28 12:44:43;;;;;;;3.13;2.00;;;27.70;97.80;;;;;;5053374;28;20453;-73